sensor_id;sensor_type;location;lat;lon;timestamp;P1;durP1;ratioP1;P2;durP2;ratioP2
1404;SDS011;697;51.114;6.542;2023-04-03T00:00:04;3.53;;;3.03;;
1404;SDS011;697;51.114;6.542;2023-04-03T00:02:32;3.87;;;3.57;;
1404;SDS011;697;51.114;6.542;2023-04-03T00:05:00;5.00;;;3.90;;
1404;SDS011;697;51.114;6.542;2023-04-03T00:07:26;4.30;;;3.33;;
1404;SDS011;697;51.114;6.542;2023-04-03T00:09:53;4.67;;;3.50;;
1404;SDS011;697;51.114;6.542;2023-04-03T00:12:20;3.40;;;3.20;;
1404;SDS011;697;51.114;6.542;2023-04-03T00:14:47;3.33;;;3.13;;
1404;SDS011;697;51.114;6.542;2023-04-03T00:17:13;3.43;;;3.17;;
1404;SDS011;697;51.114;6.542;2023-04-03T00:19:40;4.30;;;4.00;;
1404;SDS011;697;51.114;6.542;2023-04-03T00:22:08;6.80;;;4.37;;
1404;SDS011;697;51.114;6.542;2023-04-03T00:24:35;4.00;;;3.70;;
1404;SDS011;697;51.114;6.542;2023-04-03T00:27:01;5.23;;;4.73;;
1404;SDS011;697;51.114;6.542;2023-04-03T00:29:28;3.90;;;3.60;;
1404;SDS011;697;51.114;6.542;2023-04-03T00:31:55;7.47;;;4.70;;
1404;SDS011;697;51.114;6.542;2023-04-03T00:34:22;4.77;;;4.27;;
1404;SDS011;697;51.114;6.542;2023-04-03T00:36:48;5.50;;;5.00;;
1404;SDS011;697;51.114;6.542;2023-04-03T00:39:17;5.97;;;5.33;;
1404;SDS011;697;51.114;6.542;2023-04-03T00:41:44;4.60;;;4.20;;
1404;SDS011;697;51.114;6.542;2023-04-03T00:44:20;4.43;;;4.13;;
1404;SDS011;697;51.114;6.542;2023-04-03T00:46:48;5.60;;;4.50;;
1404;SDS011;697;51.114;6.542;2023-04-03T00:49:15;4.70;;;4.27;;
1404;SDS011;697;51.114;6.542;2023-04-03T00:51:41;5.17;;;4.77;;
1404;SDS011;697;51.114;6.542;2023-04-03T00:54:08;4.77;;;4.37;;
1404;SDS011;697;51.114;6.542;2023-04-03T00:56:37;5.37;;;4.60;;
1404;SDS011;697;51.114;6.542;2023-04-03T00:59:04;5.17;;;3.83;;
1404;SDS011;697;51.114;6.542;2023-04-03T01:01:36;4.10;;;3.73;;
1404;SDS011;697;51.114;6.542;2023-04-03T01:04:04;5.13;;;4.30;;
1404;SDS011;697;51.114;6.542;2023-04-03T01:06:32;4.20;;;3.80;;
1404;SDS011;697;51.114;6.542;2023-04-03T01:09:01;3.97;;;3.67;;
1404;SDS011;697;51.114;6.542;2023-04-03T01:11:28;3.83;;;3.53;;
1404;SDS011;697;51.114;6.542;2023-04-03T01:13:56;4.47;;;4.00;;
1404;SDS011;697;51.114;6.542;2023-04-03T01:16:22;4.27;;;3.90;;
1404;SDS011;697;51.114;6.542;2023-04-03T01:18:49;4.93;;;4.53;;
1404;SDS011;697;51.114;6.542;2023-04-03T01:21:29;4.73;;;4.33;;
1404;SDS011;697;51.114;6.542;2023-04-03T01:24:15;4.53;;;4.10;;
1404;SDS011;697;51.114;6.542;2023-04-03T01:26:56;4.63;;;4.23;;
1404;SDS011;697;51.114;6.542;2023-04-03T01:29:25;5.03;;;4.73;;
1404;SDS011;697;51.114;6.542;2023-04-03T01:31:54;4.50;;;4.10;;
1404;SDS011;697;51.114;6.542;2023-04-03T01:34:23;5.23;;;4.93;;
1404;SDS011;697;51.114;6.542;2023-04-03T01:36:50;4.73;;;4.33;;
1404;SDS011;697;51.114;6.542;2023-04-03T01:39:18;4.77;;;4.27;;
1404;SDS011;697;51.114;6.542;2023-04-03T01:41:45;5.03;;;4.63;;
1404;SDS011;697;51.114;6.542;2023-04-03T01:44:12;8.70;;;5.23;;
1404;SDS011;697;51.114;6.542;2023-04-03T01:46:39;5.00;;;4.20;;
1404;SDS011;697;51.114;6.542;2023-04-03T01:49:09;4.60;;;4.10;;
1404;SDS011;697;51.114;6.542;2023-04-03T01:51:36;4.80;;;4.40;;
1404;SDS011;697;51.114;6.542;2023-04-03T01:54:02;5.30;;;4.30;;
1404;SDS011;697;51.114;6.542;2023-04-03T01:56:29;5.40;;;4.90;;
1404;SDS011;697;51.114;6.542;2023-04-03T01:58:56;4.83;;;4.20;;
1404;SDS011;697;51.114;6.542;2023-04-03T02:01:23;4.77;;;4.37;;
1404;SDS011;697;51.114;6.542;2023-04-03T02:03:50;7.70;;;4.90;;
1404;SDS011;697;51.114;6.542;2023-04-03T02:06:18;5.03;;;4.53;;
1404;SDS011;697;51.114;6.542;2023-04-03T02:08:45;5.67;;;5.07;;
1404;SDS011;697;51.114;6.542;2023-04-03T02:11:12;5.87;;;5.20;;
1404;SDS011;697;51.114;6.542;2023-04-03T02:13:39;5.47;;;4.97;;
1404;SDS011;697;51.114;6.542;2023-04-03T02:16:06;5.60;;;4.90;;
1404;SDS011;697;51.114;6.542;2023-04-03T02:18:34;4.17;;;3.77;;
1404;SDS011;697;51.114;6.542;2023-04-03T02:21:01;5.07;;;4.33;;
1404;SDS011;697;51.114;6.542;2023-04-03T02:23:30;7.37;;;4.43;;
1404;SDS011;697;51.114;6.542;2023-04-03T02:26:02;5.03;;;4.53;;
1404;SDS011;697;51.114;6.542;2023-04-03T02:28:30;5.60;;;4.70;;
1404;SDS011;697;51.114;6.542;2023-04-03T02:30:57;4.83;;;4.43;;
1404;SDS011;697;51.114;6.542;2023-04-03T02:33:23;5.00;;;4.60;;
1404;SDS011;697;51.114;6.542;2023-04-03T02:35:52;4.60;;;4.30;;
1404;SDS011;697;51.114;6.542;2023-04-03T02:38:19;5.63;;;5.13;;
1404;SDS011;697;51.114;6.542;2023-04-03T02:40:47;4.30;;;4.00;;
1404;SDS011;697;51.114;6.542;2023-04-03T02:43:14;5.93;;;5.00;;
1404;SDS011;697;51.114;6.542;2023-04-03T02:45:40;5.10;;;4.70;;
1404;SDS011;697;51.114;6.542;2023-04-03T02:48:07;8.47;;;5.13;;
1404;SDS011;697;51.114;6.542;2023-04-03T02:50:34;10.40;;;4.90;;
1404;SDS011;697;51.114;6.542;2023-04-03T02:53:01;5.53;;;4.93;;
1404;SDS011;697;51.114;6.542;2023-04-03T02:55:27;5.70;;;5.20;;
1404;SDS011;697;51.114;6.542;2023-04-03T02:57:55;6.30;;;5.40;;
1404;SDS011;697;51.114;6.542;2023-04-03T03:00:22;5.73;;;5.23;;
1404;SDS011;697;51.114;6.542;2023-04-03T03:02:49;6.57;;;5.63;;
1404;SDS011;697;51.114;6.542;2023-04-03T03:05:16;6.37;;;5.83;;
1404;SDS011;697;51.114;6.542;2023-04-03T03:07:43;6.37;;;5.50;;
1404;SDS011;697;51.114;6.542;2023-04-03T03:10:10;6.10;;;5.60;;
1404;SDS011;697;51.114;6.542;2023-04-03T03:12:37;7.70;;;5.87;;
1404;SDS011;697;51.114;6.542;2023-04-03T03:15:05;10.40;;;6.73;;
1404;SDS011;697;51.114;6.542;2023-04-03T03:17:33;7.23;;;6.27;;
1404;SDS011;697;51.114;6.542;2023-04-03T03:20:01;9.60;;;5.77;;
1404;SDS011;697;51.114;6.542;2023-04-03T03:22:27;7.17;;;5.83;;
1404;SDS011;697;51.114;6.542;2023-04-03T03:24:54;7.10;;;6.37;;
1404;SDS011;697;51.114;6.542;2023-04-03T03:27:21;8.30;;;7.50;;
1404;SDS011;697;51.114;6.542;2023-04-03T03:29:48;6.60;;;5.97;;
1404;SDS011;697;51.114;6.542;2023-04-03T03:32:16;7.63;;;6.93;;
1404;SDS011;697;51.114;6.542;2023-04-03T03:34:43;7.60;;;6.90;;
1404;SDS011;697;51.114;6.542;2023-04-03T03:37:10;8.07;;;7.13;;
1404;SDS011;697;51.114;6.542;2023-04-03T03:39:37;7.67;;;6.97;;
1404;SDS011;697;51.114;6.542;2023-04-03T03:42:03;7.07;;;6.23;;
1404;SDS011;697;51.114;6.542;2023-04-03T03:44:30;10.40;;;7.87;;
1404;SDS011;697;51.114;6.542;2023-04-03T03:46:57;8.43;;;6.47;;
1404;SDS011;697;51.114;6.542;2023-04-03T03:49:25;9.90;;;7.27;;
1404;SDS011;697;51.114;6.542;2023-04-03T03:51:51;7.70;;;7.00;;
1404;SDS011;697;51.114;6.542;2023-04-03T03:54:18;7.80;;;7.00;;
1404;SDS011;697;51.114;6.542;2023-04-03T03:56:45;9.80;;;7.93;;
1404;SDS011;697;51.114;6.542;2023-04-03T03:59:11;9.30;;;8.30;;
1404;SDS011;697;51.114;6.542;2023-04-03T04:01:38;6.97;;;6.37;;
1404;SDS011;697;51.114;6.542;2023-04-03T04:04:05;8.50;;;7.70;;
1404;SDS011;697;51.114;6.542;2023-04-03T04:06:33;9.30;;;7.70;;
1404;SDS011;697;51.114;6.542;2023-04-03T04:09:00;10.30;;;8.13;;
1404;SDS011;697;51.114;6.542;2023-04-03T04:11:27;8.30;;;7.47;;
1404;SDS011;697;51.114;6.542;2023-04-03T04:13:53;10.47;;;7.80;;
1404;SDS011;697;51.114;6.542;2023-04-03T04:16:20;8.50;;;7.80;;
1404;SDS011;697;51.114;6.542;2023-04-03T04:18:47;9.10;;;8.17;;
1404;SDS011;697;51.114;6.542;2023-04-03T04:21:13;7.27;;;6.57;;
1404;SDS011;697;51.114;6.542;2023-04-03T04:23:41;11.53;;;7.83;;
1404;SDS011;697;51.114;6.542;2023-04-03T04:26:08;7.50;;;6.80;;
1404;SDS011;697;51.114;6.542;2023-04-03T04:28:35;10.03;;;7.17;;
1404;SDS011;697;51.114;6.542;2023-04-03T04:31:02;10.67;;;8.07;;
1404;SDS011;697;51.114;6.542;2023-04-03T04:33:28;8.50;;;7.70;;
1404;SDS011;697;51.114;6.542;2023-04-03T04:35:55;7.73;;;6.50;;
1404;SDS011;697;51.114;6.542;2023-04-03T04:38:22;8.80;;;7.00;;
1404;SDS011;697;51.114;6.542;2023-04-03T04:40:50;7.50;;;6.90;;
1404;SDS011;697;51.114;6.542;2023-04-03T04:43:17;7.33;;;6.57;;
1404;SDS011;697;51.114;6.542;2023-04-03T04:45:43;7.70;;;6.90;;
1404;SDS011;697;51.114;6.542;2023-04-03T04:48:10;7.63;;;6.93;;
1404;SDS011;697;51.114;6.542;2023-04-03T04:50:37;7.10;;;6.40;;
1404;SDS011;697;51.114;6.542;2023-04-03T04:53:03;6.70;;;6.10;;
1404;SDS011;697;51.114;6.542;2023-04-03T04:55:30;8.13;;;7.33;;
1404;SDS011;697;51.114;6.542;2023-04-03T04:57:59;7.23;;;6.63;;
1404;SDS011;697;51.114;6.542;2023-04-03T05:00:26;8.10;;;7.30;;
1404;SDS011;697;51.114;6.542;2023-04-03T05:02:52;9.20;;;7.20;;
1404;SDS011;697;51.114;6.542;2023-04-03T05:05:19;11.50;;;7.30;;
1404;SDS011;697;51.114;6.542;2023-04-03T05:07:46;7.37;;;6.77;;
1404;SDS011;697;51.114;6.542;2023-04-03T05:10:12;7.67;;;6.73;;
1404;SDS011;697;51.114;6.542;2023-04-03T05:12:39;9.20;;;8.30;;
1404;SDS011;697;51.114;6.542;2023-04-03T05:15:08;8.83;;;7.57;;
1404;SDS011;697;51.114;6.542;2023-04-03T05:17:35;8.27;;;7.47;;
1404;SDS011;697;51.114;6.542;2023-04-03T05:20:02;8.57;;;7.20;;
1404;SDS011;697;51.114;6.542;2023-04-03T05:22:30;12.43;;;8.00;;
1404;SDS011;697;51.114;6.542;2023-04-03T05:24:57;10.03;;;7.80;;
1404;SDS011;697;51.114;6.542;2023-04-03T05:27:24;10.77;;;8.77;;
1404;SDS011;697;51.114;6.542;2023-04-03T05:29:53;9.87;;;8.97;;
1404;SDS011;697;51.114;6.542;2023-04-03T05:32:21;10.10;;;9.10;;
1404;SDS011;697;51.114;6.542;2023-04-03T05:34:48;11.40;;;9.90;;
1404;SDS011;697;51.114;6.542;2023-04-03T05:37:15;14.20;;;8.80;;
1404;SDS011;697;51.114;6.542;2023-04-03T05:39:42;11.03;;;9.00;;
1404;SDS011;697;51.114;6.542;2023-04-03T05:42:09;8.70;;;7.80;;
1404;SDS011;697;51.114;6.542;2023-04-03T05:44:36;10.73;;;8.73;;
1404;SDS011;697;51.114;6.542;2023-04-03T05:47:03;8.40;;;7.60;;
1404;SDS011;697;51.114;6.542;2023-04-03T05:49:31;8.13;;;7.33;;
1404;SDS011;697;51.114;6.542;2023-04-03T05:51:58;7.73;;;7.03;;
1404;SDS011;697;51.114;6.542;2023-04-03T05:54:26;8.53;;;7.10;;
1404;SDS011;697;51.114;6.542;2023-04-03T05:56:53;8.07;;;7.20;;
1404;SDS011;697;51.114;6.542;2023-04-03T05:59:20;7.70;;;6.90;;
1404;SDS011;697;51.114;6.542;2023-04-03T06:01:47;9.73;;;7.13;;
1404;SDS011;697;51.114;6.542;2023-04-03T06:04:15;7.90;;;6.40;;
1404;SDS011;697;51.114;6.542;2023-04-03T06:06:44;13.77;;;6.73;;
1404;SDS011;697;51.114;6.542;2023-04-03T06:09:12;7.57;;;6.10;;
1404;SDS011;697;51.114;6.542;2023-04-03T06:11:39;8.77;;;5.90;;
1404;SDS011;697;51.114;6.542;2023-04-03T06:14:06;8.73;;;5.90;;
1404;SDS011;697;51.114;6.542;2023-04-03T06:16:34;6.23;;;5.50;;
1404;SDS011;697;51.114;6.542;2023-04-03T06:19:00;8.37;;;5.90;;
1404;SDS011;697;51.114;6.542;2023-04-03T06:21:27;10.33;;;7.00;;
1404;SDS011;697;51.114;6.542;2023-04-03T06:23:55;6.67;;;5.93;;
1404;SDS011;697;51.114;6.542;2023-04-03T06:26:22;9.27;;;5.53;;
1404;SDS011;697;51.114;6.542;2023-04-03T06:28:49;7.17;;;6.10;;
1404;SDS011;697;51.114;6.542;2023-04-03T06:31:15;7.53;;;6.80;;
1404;SDS011;697;51.114;6.542;2023-04-03T06:33:42;8.60;;;6.10;;
1404;SDS011;697;51.114;6.542;2023-04-03T06:36:09;7.33;;;6.30;;
1404;SDS011;697;51.114;6.542;2023-04-03T06:38:37;8.50;;;6.63;;
1404;SDS011;697;51.114;6.542;2023-04-03T06:41:05;9.77;;;6.33;;
1404;SDS011;697;51.114;6.542;2023-04-03T06:43:32;8.97;;;8.07;;
1404;SDS011;697;51.114;6.542;2023-04-03T06:45:59;8.23;;;7.47;;
1404;SDS011;697;51.114;6.542;2023-04-03T06:48:26;9.50;;;7.10;;
1404;SDS011;697;51.114;6.542;2023-04-03T06:50:52;14.60;;;7.53;;
1404;SDS011;697;51.114;6.542;2023-04-03T06:53:19;9.63;;;7.97;;
1404;SDS011;697;51.114;6.542;2023-04-03T06:55:46;10.40;;;7.37;;
1404;SDS011;697;51.114;6.542;2023-04-03T06:58:14;8.07;;;7.37;;
1404;SDS011;697;51.114;6.542;2023-04-03T07:00:42;6.63;;;5.90;;
1404;SDS011;697;51.114;6.542;2023-04-03T07:03:09;6.77;;;5.00;;
1404;SDS011;697;51.114;6.542;2023-04-03T07:05:35;7.20;;;4.90;;
1404;SDS011;697;51.114;6.542;2023-04-03T07:08:02;4.90;;;4.07;;
1404;SDS011;697;51.114;6.542;2023-04-03T07:10:29;4.80;;;4.07;;
1404;SDS011;697;51.114;6.542;2023-04-03T07:12:56;6.03;;;4.27;;
1404;SDS011;697;51.114;6.542;2023-04-03T07:15:24;7.00;;;4.20;;
1404;SDS011;697;51.114;6.542;2023-04-03T07:17:51;7.50;;;4.63;;
1404;SDS011;697;51.114;6.542;2023-04-03T07:20:18;6.67;;;4.10;;
1404;SDS011;697;51.114;6.542;2023-04-03T07:22:44;6.73;;;3.50;;
1404;SDS011;697;51.114;6.542;2023-04-03T07:25:11;3.30;;;2.73;;
1404;SDS011;697;51.114;6.542;2023-04-03T07:27:38;4.33;;;3.67;;
1404;SDS011;697;51.114;6.542;2023-04-03T07:30:05;2.30;;;2.10;;
1404;SDS011;697;51.114;6.542;2023-04-03T07:32:34;4.57;;;3.10;;
1404;SDS011;697;51.114;6.542;2023-04-03T07:35:02;3.70;;;2.90;;
1404;SDS011;697;51.114;6.542;2023-04-03T07:37:29;3.83;;;2.37;;
1404;SDS011;697;51.114;6.542;2023-04-03T07:39:57;6.97;;;2.93;;
1404;SDS011;697;51.114;6.542;2023-04-03T07:42:24;8.47;;;2.40;;
1404;SDS011;697;51.114;6.542;2023-04-03T07:44:52;7.13;;;2.70;;
1404;SDS011;697;51.114;6.542;2023-04-03T07:47:19;2.63;;;2.17;;
1404;SDS011;697;51.114;6.542;2023-04-03T07:49:48;2.80;;;2.00;;
1404;SDS011;697;51.114;6.542;2023-04-03T07:52:14;2.83;;;1.90;;
1404;SDS011;697;51.114;6.542;2023-04-03T07:54:41;5.03;;;2.17;;
1404;SDS011;697;51.114;6.542;2023-04-03T07:57:08;5.50;;;2.60;;
1404;SDS011;697;51.114;6.542;2023-04-03T07:59:35;5.13;;;2.20;;
1404;SDS011;697;51.114;6.542;2023-04-03T08:02:02;4.87;;;1.97;;
1404;SDS011;697;51.114;6.542;2023-04-03T08:04:29;2.27;;;1.73;;
1404;SDS011;697;51.114;6.542;2023-04-03T08:06:58;5.57;;;2.00;;
1404;SDS011;697;51.114;6.542;2023-04-03T08:09:24;7.73;;;3.07;;
1404;SDS011;697;51.114;6.542;2023-04-03T08:11:51;4.10;;;1.50;;
1404;SDS011;697;51.114;6.542;2023-04-03T08:14:18;4.00;;;1.80;;
1404;SDS011;697;51.114;6.542;2023-04-03T08:16:46;5.17;;;2.40;;
1404;SDS011;697;51.114;6.542;2023-04-03T08:19:13;5.83;;;2.80;;
1404;SDS011;697;51.114;6.542;2023-04-03T08:21:42;2.13;;;1.70;;
1404;SDS011;697;51.114;6.542;2023-04-03T08:24:11;3.60;;;1.80;;
1404;SDS011;697;51.114;6.542;2023-04-03T08:26:38;5.90;;;1.90;;
1404;SDS011;697;51.114;6.542;2023-04-03T08:29:05;3.03;;;1.60;;
1404;SDS011;697;51.114;6.542;2023-04-03T08:31:31;2.57;;;2.23;;
1404;SDS011;697;51.114;6.542;2023-04-03T08:33:58;2.30;;;1.80;;
1404;SDS011;697;51.114;6.542;2023-04-03T08:36:25;4.53;;;2.30;;
1404;SDS011;697;51.114;6.542;2023-04-03T08:38:54;3.90;;;1.90;;
1404;SDS011;697;51.114;6.542;2023-04-03T08:41:26;4.50;;;1.97;;
1404;SDS011;697;51.114;6.542;2023-04-03T08:44:01;2.60;;;1.60;;
1404;SDS011;697;51.114;6.542;2023-04-03T08:46:40;3.90;;;1.77;;
1404;SDS011;697;51.114;6.542;2023-04-03T08:49:15;2.67;;;1.77;;
1404;SDS011;697;51.114;6.542;2023-04-03T08:51:49;3.30;;;1.90;;
1404;SDS011;697;51.114;6.542;2023-04-03T08:54:21;4.13;;;1.63;;
1404;SDS011;697;51.114;6.542;2023-04-03T08:56:55;2.27;;;1.50;;
1404;SDS011;697;51.114;6.542;2023-04-03T08:59:24;3.30;;;1.33;;
1404;SDS011;697;51.114;6.542;2023-04-03T09:01:53;4.00;;;1.40;;
1404;SDS011;697;51.114;6.542;2023-04-03T09:04:21;2.80;;;1.30;;
1404;SDS011;697;51.114;6.542;2023-04-03T09:06:49;3.33;;;1.37;;
1404;SDS011;697;51.114;6.542;2023-04-03T09:09:23;1.57;;;1.13;;
1404;SDS011;697;51.114;6.542;2023-04-03T09:12:00;3.17;;;1.43;;
1404;SDS011;697;51.114;6.542;2023-04-03T09:14:38;2.00;;;1.10;;
1404;SDS011;697;51.114;6.542;2023-04-03T09:17:09;2.70;;;1.50;;
1404;SDS011;697;51.114;6.542;2023-04-03T09:19:43;3.57;;;1.20;;
1404;SDS011;697;51.114;6.542;2023-04-03T09:22:18;1.83;;;0.90;;
1404;SDS011;697;51.114;6.542;2023-04-03T09:24:49;3.57;;;1.73;;
1404;SDS011;697;51.114;6.542;2023-04-03T09:27:22;4.57;;;1.60;;
1404;SDS011;697;51.114;6.542;2023-04-03T09:29:49;1.93;;;1.10;;
1404;SDS011;697;51.114;6.542;2023-04-03T09:32:22;3.07;;;1.30;;
1404;SDS011;697;51.114;6.542;2023-04-03T09:34:53;2.10;;;0.80;;
1404;SDS011;697;51.114;6.542;2023-04-03T09:37:33;3.13;;;1.30;;
1404;SDS011;697;51.114;6.542;2023-04-03T09:40:03;2.53;;;1.37;;
1404;SDS011;697;51.114;6.542;2023-04-03T09:42:32;1.77;;;1.17;;
1404;SDS011;697;51.114;6.542;2023-04-03T09:45:04;2.40;;;1.40;;
1404;SDS011;697;51.114;6.542;2023-04-03T09:47:46;3.53;;;1.30;;
1404;SDS011;697;51.114;6.542;2023-04-03T09:50:20;2.13;;;1.27;;
1404;SDS011;697;51.114;6.542;2023-04-03T09:52:48;1.80;;;1.10;;
1404;SDS011;697;51.114;6.542;2023-04-03T09:55:18;2.20;;;1.07;;
1404;SDS011;697;51.114;6.542;2023-04-03T09:57:48;3.50;;;1.50;;
1404;SDS011;697;51.114;6.542;2023-04-03T10:00:20;1.87;;;1.30;;
1404;SDS011;697;51.114;6.542;2023-04-03T10:02:51;2.03;;;1.80;;
1404;SDS011;697;51.114;6.542;2023-04-03T10:05:32;2.80;;;1.37;;
1404;SDS011;697;51.114;6.542;2023-04-03T10:08:07;3.57;;;1.80;;
1404;SDS011;697;51.114;6.542;2023-04-03T10:10:35;1.50;;;1.30;;
1404;SDS011;697;51.114;6.542;2023-04-03T10:13:05;2.70;;;1.43;;
1404;SDS011;697;51.114;6.542;2023-04-03T10:15:34;1.93;;;1.60;;
1404;SDS011;697;51.114;6.542;2023-04-03T10:18:06;2.23;;;1.33;;
1404;SDS011;697;51.114;6.542;2023-04-03T10:20:52;2.60;;;1.37;;
1404;SDS011;697;51.114;6.542;2023-04-03T10:23:24;2.20;;;1.00;;
1404;SDS011;697;51.114;6.542;2023-04-03T10:26:00;2.73;;;1.43;;
1404;SDS011;697;51.114;6.542;2023-04-03T10:28:43;6.77;;;1.40;;
1404;SDS011;697;51.114;6.542;2023-04-03T10:31:14;2.10;;;1.40;;
1404;SDS011;697;51.114;6.542;2023-04-03T10:33:53;3.23;;;1.50;;
1404;SDS011;697;51.114;6.542;2023-04-03T10:36:31;2.60;;;1.30;;
1404;SDS011;697;51.114;6.542;2023-04-03T10:39:05;2.23;;;1.07;;
1404;SDS011;697;51.114;6.542;2023-04-03T10:41:43;4.03;;;1.80;;
1404;SDS011;697;51.114;6.542;2023-04-03T10:44:24;3.50;;;1.30;;
1404;SDS011;697;51.114;6.542;2023-04-03T10:47:02;2.70;;;1.23;;
1404;SDS011;697;51.114;6.542;2023-04-03T10:49:38;1.87;;;1.17;;
1404;SDS011;697;51.114;6.542;2023-04-03T10:52:14;3.30;;;1.73;;
1404;SDS011;697;51.114;6.542;2023-04-03T10:54:48;2.20;;;1.53;;
1404;SDS011;697;51.114;6.542;2023-04-03T10:57:21;2.20;;;1.20;;
1404;SDS011;697;51.114;6.542;2023-04-03T10:59:51;2.47;;;1.33;;
1404;SDS011;697;51.114;6.542;2023-04-03T11:02:23;3.13;;;1.20;;
1404;SDS011;697;51.114;6.542;2023-04-03T11:04:51;1.77;;;1.23;;
1404;SDS011;697;51.114;6.542;2023-04-03T11:07:23;3.20;;;1.20;;
1404;SDS011;697;51.114;6.542;2023-04-03T11:09:53;1.77;;;1.10;;
1404;SDS011;697;51.114;6.542;2023-04-03T11:12:24;3.27;;;1.20;;
1404;SDS011;697;51.114;6.542;2023-04-03T11:14:56;1.53;;;1.23;;
1404;SDS011;697;51.114;6.542;2023-04-03T11:17:26;2.10;;;1.30;;
1404;SDS011;697;51.114;6.542;2023-04-03T11:19:59;2.00;;;1.20;;
1404;SDS011;697;51.114;6.542;2023-04-03T11:22:32;2.33;;;1.30;;
1404;SDS011;697;51.114;6.542;2023-04-03T11:25:03;1.90;;;1.30;;
1404;SDS011;697;51.114;6.542;2023-04-03T11:27:33;2.53;;;1.70;;
1404;SDS011;697;51.114;6.542;2023-04-03T11:30:07;2.73;;;1.53;;
1404;SDS011;697;51.114;6.542;2023-04-03T11:35:31;2.93;;;1.27;;
1404;SDS011;697;51.114;6.542;2023-04-03T11:38:00;3.27;;;1.37;;
1404;SDS011;697;51.114;6.542;2023-04-03T11:40:31;2.27;;;1.30;;
1404;SDS011;697;51.114;6.542;2023-04-03T11:43:03;3.17;;;1.27;;
1404;SDS011;697;51.114;6.542;2023-04-03T11:45:37;3.37;;;1.50;;
1404;SDS011;697;51.114;6.542;2023-04-03T12:12:41;3.58;;;1.30;;
1404;SDS011;697;51.114;6.542;2023-04-03T12:15:12;1.90;;;1.30;;
1404;SDS011;697;51.114;6.542;2023-04-03T12:17:46;2.63;;;1.30;;
1404;SDS011;697;51.114;6.542;2023-04-03T12:23:23;2.60;;;1.50;;
1404;SDS011;697;51.114;6.542;2023-04-03T12:25:51;2.03;;;1.20;;
1404;SDS011;697;51.114;6.542;2023-04-03T12:28:26;2.77;;;1.30;;
1404;SDS011;697;51.114;6.542;2023-04-03T12:30:53;2.77;;;1.53;;
1404;SDS011;697;51.114;6.542;2023-04-03T12:33:26;4.25;;;1.35;;
1404;SDS011;697;51.114;6.542;2023-04-03T12:36:02;2.55;;;1.48;;
1404;SDS011;697;51.114;6.542;2023-04-03T12:38:51;2.47;;;1.40;;
1404;SDS011;697;51.114;6.542;2023-04-03T12:41:31;2.58;;;1.42;;
1404;SDS011;697;51.114;6.542;2023-04-03T12:44:07;3.00;;;1.08;;
1404;SDS011;697;51.114;6.542;2023-04-03T12:46:47;1.38;;;0.93;;
1404;SDS011;697;51.114;6.542;2023-04-03T12:49:22;2.30;;;1.30;;
1404;SDS011;697;51.114;6.542;2023-04-03T12:51:58;2.67;;;1.17;;
1404;SDS011;697;51.114;6.542;2023-04-03T12:54:27;2.67;;;1.40;;
1404;SDS011;697;51.114;6.542;2023-04-03T12:57:11;1.88;;;0.77;;
1404;SDS011;697;51.114;6.542;2023-04-03T12:59:39;1.58;;;1.10;;
1404;SDS011;697;51.114;6.542;2023-04-03T13:02:10;2.13;;;1.20;;
1404;SDS011;697;51.114;6.542;2023-04-03T13:04:47;1.73;;;1.25;;
1404;SDS011;697;51.114;6.542;2023-04-03T13:07:22;2.85;;;1.33;;
1404;SDS011;697;51.114;6.542;2023-04-03T13:09:56;2.17;;;1.00;;
1404;SDS011;697;51.114;6.542;2023-04-03T13:12:27;1.40;;;1.10;;
1404;SDS011;697;51.114;6.542;2023-04-03T13:14:54;2.30;;;1.15;;
1404;SDS011;697;51.114;6.542;2023-04-03T13:17:24;1.50;;;1.20;;
1404;SDS011;697;51.114;6.542;2023-04-03T13:19:52;1.40;;;1.00;;
1404;SDS011;697;51.114;6.542;2023-04-03T13:22:25;1.80;;;0.70;;
1404;SDS011;697;51.114;6.542;2023-04-03T13:24:56;1.75;;;1.23;;
1404;SDS011;697;51.114;6.542;2023-04-03T13:27:26;2.80;;;1.60;;
1404;SDS011;697;51.114;6.542;2023-04-03T13:29:57;2.60;;;1.15;;
1404;SDS011;697;51.114;6.542;2023-04-03T13:32:26;1.45;;;0.85;;
1404;SDS011;697;51.114;6.542;2023-04-03T13:34:56;1.23;;;1.00;;
1404;SDS011;697;51.114;6.542;2023-04-03T13:37:24;2.15;;;1.30;;
1404;SDS011;697;51.114;6.542;2023-04-03T13:39:59;1.85;;;1.20;;
1404;SDS011;697;51.114;6.542;2023-04-03T13:42:30;2.05;;;1.48;;
1404;SDS011;697;51.114;6.542;2023-04-03T13:45:16;2.53;;;1.15;;
1404;SDS011;697;51.114;6.542;2023-04-03T13:47:45;1.45;;;1.08;;
1404;SDS011;697;51.114;6.542;2023-04-03T13:50:17;1.83;;;1.20;;
1404;SDS011;697;51.114;6.542;2023-04-03T13:52:46;1.98;;;1.27;;
1404;SDS011;697;51.114;6.542;2023-04-03T13:55:16;2.88;;;1.10;;
1404;SDS011;697;51.114;6.542;2023-04-03T13:57:50;3.00;;;1.20;;
1404;SDS011;697;51.114;6.542;2023-04-03T14:03:11;2.50;;;1.50;;
1404;SDS011;697;51.114;6.542;2023-04-03T14:05:41;3.33;;;1.95;;
1404;SDS011;697;51.114;6.542;2023-04-03T14:08:07;17.50;;;13.88;;
1404;SDS011;697;51.114;6.542;2023-04-03T14:10:35;7.50;;;6.25;;
1404;SDS011;697;51.114;6.542;2023-04-03T14:13:01;3.15;;;2.85;;
1404;SDS011;697;51.114;6.542;2023-04-03T14:15:28;2.20;;;1.50;;
1404;SDS011;697;51.114;6.542;2023-04-03T14:17:57;1.73;;;1.23;;
1404;SDS011;697;51.114;6.542;2023-04-03T14:20:25;2.25;;;1.40;;
1404;SDS011;697;51.114;6.542;2023-04-03T14:22:54;1.92;;;1.42;;
1404;SDS011;697;51.114;6.542;2023-04-03T14:25:21;2.83;;;1.50;;
1404;SDS011;697;51.114;6.542;2023-04-03T14:27:49;3.22;;;1.80;;
1404;SDS011;697;51.114;6.542;2023-04-03T14:30:18;2.35;;;1.40;;
1404;SDS011;697;51.114;6.542;2023-04-03T14:32:47;1.50;;;1.10;;
1404;SDS011;697;51.114;6.542;2023-04-03T14:35:14;2.60;;;1.20;;
1404;SDS011;697;51.114;6.542;2023-04-03T14:37:41;2.50;;;2.08;;
1404;SDS011;697;51.114;6.542;2023-04-03T14:40:11;3.10;;;2.38;;
1404;SDS011;697;51.114;6.542;2023-04-03T14:42:39;4.68;;;1.88;;
1404;SDS011;697;51.114;6.542;2023-04-03T14:45:07;3.78;;;1.60;;
1404;SDS011;697;51.114;6.542;2023-04-03T14:47:36;3.85;;;1.52;;
1404;SDS011;697;51.114;6.542;2023-04-03T14:50:11;1.88;;;1.30;;
1404;SDS011;697;51.114;6.542;2023-04-03T14:52:41;2.80;;;2.10;;
1404;SDS011;697;51.114;6.542;2023-04-03T14:55:11;3.95;;;1.83;;
1404;SDS011;697;51.114;6.542;2023-04-03T14:57:38;3.35;;;2.10;;
1404;SDS011;697;51.114;6.542;2023-04-03T15:00:07;2.85;;;1.85;;
1404;SDS011;697;51.114;6.542;2023-04-03T15:02:38;2.80;;;1.30;;
1404;SDS011;697;51.114;6.542;2023-04-03T15:05:06;2.13;;;1.50;;
1404;SDS011;697;51.114;6.542;2023-04-03T15:07:34;3.27;;;1.40;;
1404;SDS011;697;51.114;6.542;2023-04-03T15:10:05;9.18;;;1.48;;
1404;SDS011;697;51.114;6.542;2023-04-03T15:12:42;10.50;;;1.70;;
1404;SDS011;697;51.114;6.542;2023-04-03T15:15:09;2.57;;;1.60;;
1404;SDS011;697;51.114;6.542;2023-04-03T15:17:36;3.40;;;1.50;;
1404;SDS011;697;51.114;6.542;2023-04-03T15:20:05;2.13;;;1.20;;
1404;SDS011;697;51.114;6.542;2023-04-03T15:22:38;3.37;;;1.57;;
1404;SDS011;697;51.114;6.542;2023-04-03T15:25:05;6.27;;;2.17;;
1404;SDS011;697;51.114;6.542;2023-04-03T15:27:34;4.90;;;1.97;;
1404;SDS011;697;51.114;6.542;2023-04-03T15:30:01;2.87;;;1.67;;
1404;SDS011;697;51.114;6.542;2023-04-03T15:32:29;2.58;;;1.60;;
1404;SDS011;697;51.114;6.542;2023-04-03T15:34:55;3.03;;;1.50;;
1404;SDS011;697;51.114;6.542;2023-04-03T15:37:22;1.70;;;1.30;;
1404;SDS011;697;51.114;6.542;2023-04-03T15:39:49;3.97;;;1.87;;
1404;SDS011;697;51.114;6.542;2023-04-03T15:42:16;2.37;;;1.53;;
1404;SDS011;697;51.114;6.542;2023-04-03T15:44:44;2.17;;;1.50;;
1404;SDS011;697;51.114;6.542;2023-04-03T15:47:10;4.30;;;1.63;;
1404;SDS011;697;51.114;6.542;2023-04-03T15:49:37;4.20;;;1.50;;
1404;SDS011;697;51.114;6.542;2023-04-03T15:52:04;3.20;;;1.70;;
1404;SDS011;697;51.114;6.542;2023-04-03T15:54:31;2.03;;;1.10;;
1404;SDS011;697;51.114;6.542;2023-04-03T15:56:58;2.30;;;1.47;;
1404;SDS011;697;51.114;6.542;2023-04-03T15:59:25;3.40;;;1.67;;
1404;SDS011;697;51.114;6.542;2023-04-03T16:01:55;1.93;;;1.43;;
1404;SDS011;697;51.114;6.542;2023-04-03T16:04:22;2.20;;;1.60;;
1404;SDS011;697;51.114;6.542;2023-04-03T16:06:49;4.73;;;1.67;;
1404;SDS011;697;51.114;6.542;2023-04-03T16:09:16;3.10;;;1.30;;
1404;SDS011;697;51.114;6.542;2023-04-03T16:11:42;3.83;;;1.50;;
1404;SDS011;697;51.114;6.542;2023-04-03T16:14:10;2.30;;;1.57;;